Time;durP1;ratioP1;P1;durP2;ratioP2;P2;SDS_P1;SDS_P2;PMS_P1;PMS_P2;Temp;Humidity;BMP_temperature;BMP_pressure;BME280_temperature;BME280_humidity;BME280_pressure;Samples;Min_cycle;Max_cycle;Signal;HPM_P1;HPM_P2
2022/04/25 02:43:20;;;;;;;5.47;4.92;;;;;;;9.27;83.98;97798.91;1800427;79;22954;-36
2022/04/25 02:45:45;;;;;;;5.45;4.60;;;;;;;9.20;84.23;97799.37;1760525;81;21571;-35
2022/04/25 02:48:11;;;;;;;5.75;4.87;;;;;;;9.21;83.54;97806.27;1760659;81;20987;-35
2022/04/25 02:50:37;;;;;;;8.85;5.20;;;;;;;9.22;83.82;97804.47;1760581;81;21070;-35
2022/04/25 02:53:03;;;;;;;5.33;4.83;;;;;;;9.22;83.32;97805.79;1760577;81;21062;-37
2022/04/25 02:55:28;;;;;;;6.90;5.05;;;;;;;9.26;83.79;97805.09;1760581;80;20987;-35
2022/04/25 02:57:54;;;;;;;5.87;5.28;;;;;;;9.25;83.24;97807.36;1760605;81;20988;-36
2022/04/25 03:00:20;;;;;;;5.33;4.83;;;;;;;9.26;83.13;97811.64;1760591;81;21039;-35
2022/04/25 03:02:46;;;;;;;5.08;4.65;;;;;;;9.25;83.70;97803.43;1760517;80;22143;-36
2022/04/25 03:05:12;;;;;;;5.70;5.20;;;;;;;9.18;83.93;97805.17;1760949;80;21003;-37
2022/04/25 03:07:37;;;;;;;8.85;5.17;;;;;;;9.16;84.07;97811.49;1761808;81;21108;-35
2022/04/25 03:10:04;;;;;;;5.97;5.00;;;;;;;9.18;84.30;97821.39;1761810;81;20987;-35
2022/04/25 03:12:38;;;;;;;6.00;5.20;;;;;;;9.21;84.20;97818.07;1761996;81;21003;-36
2022/04/25 03:15:03;;;;;;;7.72;5.10;;;;;;;9.21;83.64;97823.31;1761409;81;20983;-37
2022/04/25 03:17:29;;;;;;;6.03;4.87;;;;;;;9.23;83.50;97824.04;1761751;81;21495;-36
2022/04/25 03:19:55;;;;;;;5.35;4.85;;;;;;;9.25;83.58;97823.10;1761985;81;21039;-37
2022/04/25 03:22:21;;;;;;;7.12;5.20;;;;;;;9.26;83.23;97823.00;1761797;81;21461;-36
2022/04/25 03:24:47;;;;;;;5.62;4.92;;;;;;;9.28;83.04;97828.10;1761791;81;21520;-36
2022/04/25 03:27:12;;;;;;;7.95;5.40;;;;;;;9.29;83.08;97827.17;1761861;81;21508;-37
2022/04/25 03:29:38;;;;;;;4.97;4.58;;;;;;;9.28;83.21;97829.41;1761700;81;21524;-36
2022/04/25 03:32:05;;;;;;;5.40;4.90;;;;;;;9.24;83.42;97839.33;1761709;81;20968;-36
2022/04/25 03:34:32;;;;;;;6.20;5.60;;;;;;;9.16;83.99;97838.55;1761846;81;20991;-36
2022/04/25 03:36:58;;;;;;;6.65;4.95;;;;;;;9.16;83.83;97842.97;1761884;81;21035;-36
2022/04/25 03:39:24;;;;;;;5.75;5.20;;;;;;;9.18;84.09;97843.20;1761713;81;21007;-38
2022/04/25 03:41:50;;;;;;;6.72;5.70;;;;;;;9.23;83.58;97846.33;1761640;81;21023;-36
2022/04/25 03:44:15;;;;;;;6.15;4.58;;;;;;;9.25;83.59;97853.27;1761970;81;21030;-37
2022/04/25 03:46:41;;;;;;;5.75;5.25;;;;;;;9.25;83.55;97857.20;1762003;81;21002;-36
2022/04/25 03:49:07;;;;;;;7.62;5.08;;;;;;;9.20;83.80;97852.28;1762025;81;20995;-36
2022/04/25 03:51:32;;;;;;;8.25;4.92;;;;;;;9.20;84.00;97853.59;1762000;81;21030;-37
2022/04/25 03:53:59;;;;;;;5.67;5.03;;;;;;;9.19;84.13;97853.24;1761611;81;21038;-38
2022/04/25 03:59:08;;;;;;;9.88;4.95;;;;;;;9.21;83.83;97860.04;1761423;81;21341;-37
2022/04/25 04:01:36;;;;;;;6.62;4.55;;;;;;;9.26;83.42;97861.48;1761494;81;21384;-37
2022/04/25 04:04:05;;;;;;;6.12;5.08;;;;;;;9.26;83.66;97862.80;1761556;81;21030;-38
2022/04/25 04:06:29;;;;;;;4.95;4.55;;;;;;;9.28;83.64;97864.38;1761244;81;21461;-36
2022/04/25 04:08:55;;;;;;;5.62;5.00;;;;;;;9.28;83.28;97867.45;1761426;81;21019;-35
2022/04/25 04:11:21;;;;;;;8.15;5.25;;;;;;;9.26;83.74;97872.84;1761374;81;21026;-36
2022/04/25 04:13:47;;;;;;;4.92;4.42;;;;;;;9.28;83.49;97867.45;1761420;80;20991;-37
2022/04/25 04:16:13;;;;;;;5.22;4.72;;;;;;;9.28;83.11;97870.08;1761578;81;21025;-37
2022/04/25 04:18:41;;;;;;;5.92;5.12;;;;;;;9.27;82.99;97873.18;1761370;81;21018;-36
2022/04/25 04:21:06;;;;;;;6.05;5.40;;;;;;;9.22;83.23;97870.91;1761201;81;21491;-37
2022/04/25 04:23:33;;;;;;;7.12;4.70;;;;;;;9.21;83.03;97873.64;1761417;81;21038;-38
2022/04/25 04:25:59;;;;;;;6.47;5.20;;;;;;;9.20;82.83;97880.68;1761662;80;20964;-35
2022/04/25 04:28:25;;;;;;;7.10;5.50;;;;;;;9.19;83.40;97886.03;1761380;81;20989;-37
2022/04/25 04:30:51;;;;;;;9.75;4.67;;;;;;;9.21;83.25;97888.89;1761424;81;20963;-36
2022/04/25 04:33:16;;;;;;;5.30;4.80;;;;;;;9.20;83.10;97897.73;1761392;81;21333;-36
